createdAt,value
2019-05-01T00:00:25.187Z,0.00
2019-05-01T00:01:25.167Z,0.00
2019-05-01T00:02:25.145Z,0.00
2019-05-01T00:03:25.124Z,0.00
2019-05-01T00:04:25.103Z,0.00
2019-05-01T00:05:25.093Z,0.00
2019-05-01T00:06:25.064Z,0.00
2019-05-01T00:07:25.039Z,0.00
2019-05-01T00:08:25.030Z,0.00
2019-05-01T00:09:24.999Z,0.00
2019-05-01T00:10:24.984Z,0.00
2019-05-01T00:11:24.959Z,0.00
2019-05-01T00:12:24.931Z,0.00
2019-05-01T00:13:24.908Z,0.00
2019-05-01T00:14:24.889Z,0.00
2019-05-01T00:15:24.866Z,0.00
2019-05-01T00:17:27.620Z,0.00
2019-05-01T00:18:25.010Z,0.00
2019-05-01T00:24:08.130Z,0.00
2019-05-01T00:25:08.109Z,0.00
2019-05-01T00:26:08.089Z,0.00
2019-05-01T00:27:08.067Z,0.00
2019-05-01T00:28:08.042Z,0.00
2019-05-01T00:29:08.020Z,0.00
2019-05-01T00:30:08.003Z,0.00
2019-05-01T00:31:07.982Z,0.00
2019-05-01T00:32:07.956Z,0.00
2019-05-01T00:33:07.943Z,0.00
2019-05-01T00:34:07.917Z,0.00
2019-05-01T00:35:07.893Z,0.00
2019-05-01T00:36:07.871Z,0.00
2019-05-01T00:37:07.856Z,0.00
2019-05-01T00:38:07.831Z,0.00
2019-05-01T00:39:07.805Z,0.00
2019-05-01T00:40:07.785Z,0.00
2019-05-01T00:41:07.764Z,0.00
2019-05-01T00:42:07.743Z,0.00
2019-05-01T00:43:07.719Z,0.00
2019-05-01T00:44:07.698Z,0.00
2019-05-01T00:45:07.677Z,0.00
2019-05-01T00:46:07.659Z,0.00
2019-05-01T00:47:07.640Z,0.00
2019-05-01T00:48:07.612Z,0.00
2019-05-01T00:49:07.591Z,0.00
2019-05-01T00:50:07.570Z,0.00
2019-05-01T00:51:07.556Z,0.00
2019-05-01T00:52:07.523Z,0.00
2019-05-01T00:53:07.510Z,0.00
2019-05-01T00:57:07.430Z,0.00
2019-05-01T00:58:07.397Z,0.00
2019-05-01T00:59:07.374Z,0.00
2019-05-01T01:00:07.353Z,0.00
2019-05-01T01:01:07.341Z,0.00
2019-05-01T01:33:30.732Z,0.00
2019-05-01T01:36:30.471Z,0.00
2019-05-01T01:37:31.672Z,0.00
2019-05-01T01:45:47.867Z,0.00
2019-05-01T01:46:47.844Z,0.00
2019-05-01T01:47:47.824Z,0.00
2019-05-01T01:48:47.803Z,0.00
2019-05-01T01:49:47.779Z,0.00
2019-05-01T01:50:47.759Z,0.00
2019-05-01T01:51:47.741Z,0.00
2019-05-01T01:52:47.715Z,0.00
2019-05-01T01:53:47.691Z,0.00
2019-05-01T01:54:47.669Z,0.00
2019-05-01T01:55:47.647Z,0.00
2019-05-01T01:56:47.626Z,0.00
2019-05-01T01:57:47.602Z,0.00
2019-05-01T01:58:47.581Z,0.00
2019-05-01T01:59:47.564Z,0.00
2019-05-01T02:00:47.536Z,0.00
2019-05-01T02:01:47.524Z,0.00
2019-05-01T02:02:47.492Z,0.00
2019-05-01T02:03:47.469Z,0.00
2019-05-01T02:04:47.449Z,0.00
2019-05-01T02:05:47.426Z,0.00
2019-05-01T02:06:47.403Z,0.00
2019-05-01T02:07:47.382Z,0.00
2019-05-01T02:08:56.358Z,0.00
2019-05-01T02:09:47.340Z,0.00
2019-05-01T02:10:47.316Z,0.00
2019-05-01T02:11:47.296Z,0.00
2019-05-01T02:12:47.274Z,0.00
2019-05-01T02:13:47.248Z,0.00
2019-05-01T02:14:47.232Z,0.00
2019-05-01T02:15:47.210Z,0.00
2019-05-01T02:16:47.184Z,0.00
2019-05-01T02:17:47.175Z,0.00
2019-05-01T02:18:47.152Z,0.00
2019-05-01T02:19:47.164Z,0.00
2019-05-01T02:20:47.095Z,0.00
2019-05-01T02:21:47.075Z,0.00
2019-05-01T02:22:47.056Z,0.00
2019-05-01T02:23:47.029Z,0.00
2019-05-01T02:24:47.005Z,0.00
2019-05-01T02:25:46.986Z,0.00
2019-05-01T02:26:46.962Z,0.00
2019-05-01T02:27:46.937Z,0.00
2019-05-01T02:28:46.919Z,0.00
2019-05-01T02:29:46.895Z,0.00
2019-05-01T02:30:46.886Z,0.00
2019-05-01T02:31:46.868Z,0.00
2019-05-01T02:32:46.832Z,0.00
2019-05-01T02:33:46.809Z,0.00
2019-05-01T02:34:46.789Z,0.00
2019-05-01T02:35:46.774Z,0.00
2019-05-01T02:36:46.750Z,0.00
2019-05-01T02:37:46.722Z,0.00
2019-05-01T02:38:46.701Z,0.00
2019-05-01T02:39:46.710Z,0.00
2019-05-01T02:40:46.652Z,0.00
2019-05-01T02:41:46.643Z,0.00
2019-05-01T02:42:46.613Z,0.00
2019-05-01T02:43:46.589Z,0.00
2019-05-01T02:44:46.566Z,0.00
2019-05-01T02:45:46.548Z,0.00
2019-05-01T02:46:46.523Z,0.00
2019-05-01T02:47:46.501Z,0.00
2019-05-01T02:48:46.491Z,0.00
2019-05-01T02:49:46.451Z,0.00
2019-05-01T02:50:46.430Z,0.00
2019-05-01T02:51:46.413Z,0.00
2019-05-01T02:52:46.460Z,0.00
2019-05-01T02:53:46.364Z,0.00
2019-05-01T02:54:46.343Z,0.00
2019-05-01T02:55:46.321Z,0.00
2019-05-01T02:56:46.299Z,0.00
2019-05-01T02:57:46.283Z,0.00
2019-05-01T02:58:46.255Z,0.00
2019-05-01T02:59:46.241Z,0.00
2019-05-01T03:00:46.210Z,0.00
2019-05-01T03:01:47.932Z,0.00
2019-05-01T03:02:46.167Z,0.00
2019-05-01T03:03:46.144Z,0.00
2019-05-01T03:04:46.128Z,0.00
2019-05-01T03:05:46.100Z,0.00
2019-05-01T03:06:46.077Z,0.00
2019-05-01T03:07:46.056Z,0.00
2019-05-01T03:08:46.031Z,0.00
2019-05-01T03:09:46.015Z,0.00
2019-05-01T03:10:45.991Z,0.00
2019-05-01T03:11:45.972Z,0.00
2019-05-01T03:12:45.959Z,0.00
2019-05-01T03:13:45.924Z,0.00
2019-05-01T03:14:45.897Z,0.00
2019-05-01T03:15:45.884Z,0.00
2019-05-01T03:16:45.855Z,0.00
2019-05-01T03:17:45.833Z,0.00
2019-05-01T03:18:45.817Z,0.00
2019-05-01T03:19:45.788Z,0.00
2019-05-01T03:20:45.774Z,0.00
2019-05-01T03:21:45.742Z,0.00
2019-05-01T03:22:45.726Z,0.00
2019-05-01T03:23:45.700Z,0.00
2019-05-01T03:24:45.677Z,0.00
2019-05-01T03:25:45.656Z,0.00
2019-05-01T03:26:45.632Z,0.00
2019-05-01T03:27:45.611Z,0.00
2019-05-01T03:28:45.587Z,0.00
2019-05-01T03:29:45.567Z,0.00
2019-05-01T03:30:45.561Z,0.00
2019-05-01T03:32:13.307Z,0.00
2019-05-01T03:32:45.544Z,0.00
2019-05-01T03:33:45.478Z,0.00
2019-05-01T03:34:51.942Z,0.00
2019-05-01T03:35:45.433Z,0.00
2019-05-01T03:36:45.413Z,0.00
2019-05-01T03:37:45.387Z,0.00
2019-05-01T03:38:45.369Z,0.00
2019-05-01T03:39:45.345Z,0.00
2019-05-01T03:40:45.323Z,0.00
2019-05-01T03:41:45.301Z,0.00
2019-05-01T03:42:45.281Z,0.00
2019-05-01T03:43:45.258Z,0.00
2019-05-01T03:44:45.234Z,0.00
2019-05-01T03:45:45.212Z,0.00
2019-05-01T03:46:45.189Z,0.00
2019-05-01T03:47:45.175Z,0.00
2019-05-01T03:48:45.144Z,0.00
2019-05-01T03:49:45.121Z,0.00
2019-05-01T03:50:47.215Z,0.00
2019-05-01T03:51:45.074Z,4.00
2019-05-01T03:52:45.053Z,4.00
2019-05-01T03:53:45.033Z,0.00
2019-05-01T03:54:45.008Z,0.00
2019-05-01T03:55:44.987Z,0.00
2019-05-01T03:56:44.970Z,4.00
2019-05-01T03:57:44.947Z,4.00
2019-05-01T03:58:44.920Z,4.00
2019-05-01T03:59:45.099Z,0.00
2019-05-01T04:00:44.884Z,4.00
2019-05-01T04:01:44.862Z,4.00
2019-05-01T04:02:44.838Z,4.00
2019-05-01T04:03:44.809Z,0.00
2019-05-01T04:04:44.796Z,4.00
2019-05-01T04:05:44.764Z,4.00
2019-05-01T04:06:44.741Z,4.00
2019-05-01T04:07:44.718Z,4.00
2019-05-01T04:08:44.699Z,8.00
2019-05-01T04:09:44.676Z,4.00
2019-05-01T04:10:44.653Z,8.00
2019-05-01T04:11:44.632Z,4.00
2019-05-01T04:12:44.608Z,8.00
2019-05-01T04:13:44.586Z,8.00
2019-05-01T04:15:44.541Z,8.00
2019-05-01T04:16:44.723Z,12.00
2019-05-01T04:19:44.453Z,8.00
2019-05-01T04:24:44.359Z,12.00
2019-05-01T04:25:44.316Z,12.00
2019-05-01T04:26:44.295Z,12.00
2019-05-01T04:27:44.277Z,16.00
2019-05-01T04:28:44.252Z,16.00
2019-05-01T04:29:44.231Z,16.00
2019-05-01T04:30:44.206Z,16.00
2019-05-01T04:31:44.185Z,16.00
2019-05-01T04:32:52.501Z,20.00
2019-05-01T04:33:44.139Z,16.00
2019-05-01T04:34:44.117Z,20.00
2019-05-01T04:35:44.095Z,16.00
2019-05-01T04:36:44.070Z,20.00
2019-05-01T04:37:44.048Z,20.00
2019-05-01T04:38:44.024Z,20.00
2019-05-01T04:39:44.002Z,20.00
2019-05-01T04:40:43.988Z,24.00
2019-05-01T04:41:43.966Z,24.00
2019-05-01T04:42:43.938Z,28.00
2019-05-01T04:43:43.915Z,24.00
2019-05-01T04:44:43.894Z,24.00
2019-05-01T04:45:43.871Z,28.00
2019-05-01T04:46:43.855Z,28.00
2019-05-01T04:47:43.833Z,32.00
2019-05-01T04:48:43.807Z,32.00
2019-05-01T04:49:43.781Z,32.00
2019-05-01T04:50:43.758Z,36.00
2019-05-01T04:51:43.736Z,36.00
2019-05-01T04:52:43.713Z,32.00
2019-05-01T04:53:43.695Z,36.00
2019-05-01T04:54:43.666Z,36.00
2019-05-01T04:55:43.647Z,36.00
2019-05-01T04:56:43.622Z,36.00
2019-05-01T04:57:43.598Z,36.00
2019-05-01T04:58:43.579Z,40.00
2019-05-01T04:59:43.561Z,40.00
2019-05-01T05:00:43.531Z,40.00
2019-05-01T05:01:43.510Z,44.00
2019-05-01T05:02:43.487Z,44.00
2019-05-01T05:03:43.468Z,48.00
2019-05-01T05:04:43.444Z,48.00
2019-05-01T05:05:43.420Z,52.00
2019-05-01T05:06:43.396Z,52.00
2019-05-01T05:07:43.372Z,52.00
2019-05-01T05:08:43.353Z,48.00
2019-05-01T05:09:43.329Z,52.00
2019-05-01T05:10:43.307Z,52.00
2019-05-01T05:11:43.289Z,52.00
2019-05-01T05:12:43.261Z,48.00
2019-05-01T05:13:43.240Z,52.00
2019-05-01T05:14:43.218Z,52.00
2019-05-01T05:15:43.195Z,52.00
2019-05-01T05:16:43.180Z,52.00
2019-05-01T05:17:43.147Z,56.00
2019-05-01T05:18:43.128Z,56.00
2019-05-01T05:19:43.106Z,60.00
2019-05-01T05:20:43.086Z,60.00
2019-05-01T05:21:43.061Z,64.00
2019-05-01T05:22:43.039Z,60.00
2019-05-01T05:23:43.018Z,64.00
2019-05-01T05:24:42.995Z,60.00
2019-05-01T05:25:42.973Z,64.00
2019-05-01T05:26:42.950Z,68.00
2019-05-01T05:27:42.929Z,68.00
2019-05-01T05:28:42.911Z,68.00
2019-05-01T05:29:42.882Z,68.00
2019-05-01T05:30:42.861Z,72.00
2019-05-01T05:31:42.837Z,72.00
2019-05-01T05:32:42.816Z,72.00
2019-05-01T05:33:42.793Z,72.00
2019-05-01T05:34:42.774Z,72.00
2019-05-01T05:35:42.748Z,72.00
2019-05-01T05:36:42.728Z,76.00
2019-05-01T05:37:42.705Z,80.00
2019-05-01T05:38:42.681Z,80.00
2019-05-01T05:39:42.668Z,84.00
2019-05-01T05:40:42.643Z,84.00
2019-05-01T05:41:42.618Z,80.00
2019-05-01T05:42:42.598Z,84.00
2019-05-01T05:43:42.627Z,92.00
2019-05-01T05:44:42.553Z,96.00
2019-05-01T05:45:42.527Z,96.00
2019-05-01T05:46:42.504Z,100.00
2019-05-01T05:47:42.492Z,104.00
2019-05-01T05:48:42.465Z,104.00
2019-05-01T05:49:42.439Z,104.00
2019-05-01T05:50:42.418Z,104.00
2019-05-01T05:51:42.403Z,104.00
2019-05-01T05:52:42.371Z,104.00
2019-05-01T05:53:42.348Z,108.00
2019-05-01T05:54:42.328Z,108.00
2019-05-01T05:55:42.308Z,108.00
2019-05-01T05:56:42.284Z,104.00
2019-05-01T05:57:42.261Z,108.00
2019-05-01T05:58:42.242Z,108.00
2019-05-01T05:59:42.215Z,116.00
2019-05-01T06:00:42.193Z,116.00
2019-05-01T06:01:42.172Z,124.00
2019-05-01T06:02:42.151Z,128.00
2019-05-01T06:03:42.129Z,132.00
2019-05-01T06:04:42.108Z,132.00
2019-05-01T06:05:42.089Z,132.00
2019-05-01T06:06:42.072Z,140.00
2019-05-01T06:07:42.041Z,140.00
2019-05-01T06:08:42.029Z,136.00
2019-05-01T06:09:44.655Z,140.00
2019-05-01T06:10:41.974Z,140.00
2019-05-01T06:11:43.316Z,136.00
2019-05-01T06:12:46.755Z,136.00
2019-05-01T06:13:41.922Z,140.00
2019-05-01T06:14:41.885Z,136.00
2019-05-01T06:15:42.721Z,136.00
2019-05-01T06:16:41.846Z,140.00
2019-05-01T06:17:41.822Z,148.00
2019-05-01T06:18:41.799Z,148.00
2019-05-01T06:19:45.839Z,148.00
2019-05-01T06:20:41.762Z,148.00
2019-05-01T06:21:41.732Z,152.00
2019-05-01T06:22:45.168Z,152.00
2019-05-01T06:23:41.687Z,164.00
2019-05-01T06:24:42.417Z,172.00
2019-05-01T06:25:41.644Z,184.00
2019-05-01T06:26:41.620Z,176.00
2019-05-01T06:27:44.761Z,180.00
2019-05-01T06:28:41.576Z,180.00
2019-05-01T06:29:41.557Z,184.00
2019-05-01T06:30:42.082Z,192.00
2019-05-01T06:31:41.511Z,200.00
2019-05-01T06:32:41.491Z,200.00
2019-05-01T06:33:44.277Z,200.00
2019-05-01T06:34:41.444Z,208.00
2019-05-01T06:35:41.423Z,216.00
2019-05-01T06:36:44.301Z,232.00
2019-05-01T06:37:41.378Z,232.00
2019-05-01T06:38:41.356Z,224.00
2019-05-01T06:39:42.930Z,216.00
2019-05-01T06:40:41.321Z,212.00
2019-05-01T06:41:42.749Z,224.00
2019-05-01T06:42:41.279Z,236.00
2019-05-01T06:43:43.591Z,240.00
2019-05-01T06:44:44.215Z,244.00
2019-05-01T06:45:41.201Z,236.00
2019-05-01T06:46:41.179Z,228.00
2019-05-01T06:47:43.056Z,224.00
2019-05-01T06:48:41.135Z,220.00
2019-05-01T06:49:41.122Z,220.00
2019-05-01T06:50:41.848Z,220.00
2019-05-01T06:51:41.073Z,220.00
2019-05-01T06:52:41.045Z,216.00
2019-05-01T06:53:41.244Z,216.00
2019-05-01T06:54:41.001Z,216.00
2019-05-01T06:55:40.978Z,228.00
2019-05-01T06:56:40.958Z,240.00
2019-05-01T06:57:43.662Z,252.00
2019-05-01T06:58:40.915Z,256.00
2019-05-01T06:59:40.906Z,248.00
2019-05-01T07:00:43.166Z,244.00
2019-05-01T07:01:40.855Z,252.00
2019-05-01T07:02:40.827Z,260.00
2019-05-01T07:03:45.687Z,268.00
2019-05-01T07:04:40.782Z,264.00
2019-05-01T07:05:40.757Z,256.00
2019-05-01T07:06:40.749Z,244.00
2019-05-01T07:07:43.141Z,236.00
2019-05-01T07:08:40.693Z,232.00
2019-05-01T07:09:44.218Z,220.00
2019-05-01T07:10:44.041Z,216.00
2019-05-01T07:11:42.293Z,220.00
2019-05-01T07:12:40.610Z,232.00
2019-05-01T07:13:41.522Z,252.00
2019-05-01T07:14:40.571Z,272.00
2019-05-01T07:15:40.547Z,276.00
2019-05-01T07:16:40.519Z,280.00
2019-05-01T07:17:43.925Z,292.00
2019-05-01T07:18:40.476Z,304.00
2019-05-01T07:19:41.928Z,304.00
2019-05-01T07:20:40.429Z,292.00
2019-05-01T07:21:40.405Z,288.00
2019-05-01T07:22:42.374Z,300.00
2019-05-01T07:23:40.374Z,316.00
2019-05-01T07:24:40.341Z,324.00
2019-05-01T07:25:40.668Z,336.00
2019-05-01T07:26:43.922Z,340.00
2019-05-01T07:27:40.273Z,344.00
2019-05-01T07:28:40.256Z,344.00
2019-05-01T07:29:44.863Z,344.00
2019-05-01T07:30:41.561Z,336.00
2019-05-01T07:31:40.187Z,332.00
2019-05-01T07:32:41.065Z,332.00
2019-05-01T07:33:40.142Z,332.00
2019-05-01T07:34:40.125Z,356.00
2019-05-01T07:35:40.097Z,360.00
2019-05-01T07:36:40.086Z,348.00
2019-05-01T07:37:40.051Z,340.00
2019-05-01T07:38:40.537Z,336.00
2019-05-01T07:39:40.016Z,336.00
2019-05-01T07:40:39.987Z,336.00
2019-05-01T07:41:39.964Z,344.00
2019-05-01T07:42:43.657Z,352.00
2019-05-01T07:43:39.924Z,356.00
2019-05-01T07:44:39.898Z,364.00
2019-05-01T07:45:43.567Z,368.00
2019-05-01T07:46:39.860Z,364.00
2019-05-01T07:47:39.835Z,364.00
2019-05-01T07:48:41.543Z,372.00
2019-05-01T07:49:39.788Z,384.00
2019-05-01T07:50:39.776Z,404.00
2019-05-01T07:51:42.390Z,416.00
2019-05-01T07:52:39.724Z,412.00
2019-05-01T07:53:39.699Z,400.00
2019-05-01T07:54:42.480Z,388.00
2019-05-01T07:55:39.690Z,384.00
2019-05-01T07:56:39.636Z,384.00
2019-05-01T07:57:41.204Z,420.00
2019-05-01T07:58:39.593Z,464.00
2019-05-01T07:59:39.578Z,508.00
2019-05-01T08:00:41.471Z,508.00
2019-05-01T08:01:39.524Z,496.00
2019-05-01T08:02:39.505Z,492.00
2019-05-01T08:03:42.741Z,496.00
2019-05-01T08:04:39.466Z,504.00
2019-05-01T08:05:40.831Z,524.00
2019-05-01T08:06:39.429Z,528.00
2019-05-01T08:07:39.399Z,524.00
2019-05-01T08:08:39.962Z,504.00
2019-05-01T08:09:39.363Z,496.00
2019-05-01T08:10:39.340Z,492.00
2019-05-01T08:11:44.192Z,504.00
2019-05-01T08:12:39.287Z,520.00
2019-05-01T08:13:39.261Z,536.00
2019-05-01T08:14:39.242Z,544.00
2019-05-01T08:15:39.221Z,552.00
2019-05-01T08:16:42.430Z,564.00
2019-05-01T08:17:39.179Z,568.00
2019-05-01T08:18:39.158Z,572.00
2019-05-01T08:19:40.595Z,584.00
2019-05-01T08:20:39.115Z,604.00
2019-05-01T08:21:39.108Z,620.00
2019-05-01T08:22:39.216Z,628.00
2019-05-01T08:23:42.613Z,648.00
2019-05-01T08:24:39.042Z,680.00
2019-05-01T08:25:39.002Z,656.00
2019-05-01T08:26:39.744Z,624.00
2019-05-01T08:27:38.967Z,592.00
2019-05-01T08:28:38.938Z,576.00
2019-05-01T08:29:42.076Z,568.00
2019-05-01T08:30:38.913Z,576.00
2019-05-01T08:31:38.874Z,588.00
2019-05-01T08:32:40.848Z,592.00
2019-05-01T08:33:38.836Z,596.00
2019-05-01T08:34:48.851Z,600.00
2019-05-01T08:35:38.803Z,600.00
2019-05-01T08:36:42.699Z,588.00
2019-05-01T08:37:38.750Z,572.00
2019-05-01T08:38:38.727Z,584.00
2019-05-01T08:39:39.739Z,620.00
2019-05-01T08:40:38.690Z,640.00
2019-05-01T08:41:38.658Z,652.00
2019-05-01T08:42:42.535Z,644.00
2019-05-01T08:43:38.621Z,628.00
2019-05-01T08:44:38.594Z,620.00
2019-05-01T08:45:40.773Z,628.00
2019-05-01T08:46:38.549Z,656.00
2019-05-01T08:47:38.530Z,676.00
2019-05-01T08:48:38.506Z,672.00
2019-05-01T08:49:41.745Z,640.00
2019-05-01T08:50:38.468Z,624.00
2019-05-01T08:51:38.441Z,600.00
2019-05-01T08:52:38.425Z,584.00
2019-05-01T08:53:38.403Z,576.00
2019-05-01T08:54:38.382Z,588.00
2019-05-01T08:55:39.806Z,596.00
2019-05-01T08:56:38.338Z,600.00
2019-05-01T08:57:39.550Z,608.00
2019-05-01T08:58:38.291Z,612.00
2019-05-01T08:59:38.270Z,604.00
2019-05-01T09:00:41.158Z,596.00
2019-05-01T09:01:38.233Z,612.00
2019-05-01T09:02:41.791Z,656.00
2019-05-01T09:03:38.186Z,708.00
2019-05-01T09:04:38.168Z,704.00
2019-05-01T09:05:38.155Z,664.00
2019-05-01T09:06:39.400Z,620.00
2019-05-01T09:07:38.189Z,596.00
2019-05-01T09:08:38.077Z,588.00
2019-05-01T09:09:39.834Z,596.00
2019-05-01T09:10:38.033Z,604.00
2019-05-01T09:11:38.019Z,608.00
2019-05-01T09:12:38.000Z,616.00
2019-05-01T09:13:38.010Z,624.00
2019-05-01T09:14:37.946Z,628.00
2019-05-01T09:15:37.929Z,644.00
2019-05-01T09:16:37.913Z,664.00
2019-05-01T09:17:37.883Z,680.00
2019-05-01T09:18:37.883Z,696.00
2019-05-01T09:19:37.841Z,720.00
2019-05-01T09:20:37.820Z,740.00
2019-05-01T09:21:39.390Z,744.00
2019-05-01T09:22:37.779Z,760.00
2019-05-01T09:23:37.757Z,792.00
2019-05-01T09:24:37.734Z,816.00
2019-05-01T09:25:37.721Z,836.00
2019-05-01T09:26:37.699Z,848.00
2019-05-01T09:27:37.674Z,880.00
2019-05-01T09:28:39.777Z,920.00
2019-05-01T09:29:37.626Z,960.00
2019-05-01T09:30:37.609Z,968.00
2019-05-01T09:31:37.601Z,964.00
2019-05-01T09:32:37.570Z,968.00
2019-05-01T09:33:37.543Z,980.00
2019-05-01T09:34:37.534Z,992.00
2019-05-01T09:35:40.415Z,976.00
2019-05-01T09:36:37.485Z,956.00
2019-05-01T09:37:37.460Z,964.00
2019-05-01T09:38:37.446Z,988.00
2019-05-01T09:39:37.415Z,1000.00
2019-05-01T09:40:37.396Z,984.00
2019-05-01T09:41:38.723Z,956.00
2019-05-01T09:42:37.353Z,944.00
2019-05-01T09:43:37.333Z,956.00
2019-05-01T09:44:37.312Z,956.00
2019-05-01T09:45:37.291Z,956.00
2019-05-01T09:46:37.272Z,948.00
2019-05-01T09:47:37.255Z,952.00
2019-05-01T09:48:37.229Z,944.00
2019-05-01T09:49:37.207Z,936.00
2019-05-01T09:50:37.188Z,912.00
2019-05-01T09:51:37.167Z,884.00
2019-05-01T09:52:37.144Z,856.00
2019-05-01T09:53:37.129Z,836.00
2019-05-01T09:54:37.105Z,820.00
2019-05-01T09:55:37.089Z,824.00
2019-05-01T09:56:38.432Z,836.00
2019-05-01T09:57:41.316Z,848.00
2019-05-01T09:58:37.027Z,844.00
2019-05-01T09:59:37.002Z,852.00
2019-05-01T10:00:36.979Z,876.00
2019-05-01T10:01:36.960Z,920.00
2019-05-01T10:02:37.596Z,952.00
2019-05-01T10:03:36.915Z,960.00
2019-05-01T10:04:36.889Z,928.00
2019-05-01T10:05:38.156Z,932.00
2019-05-01T10:06:36.856Z,936.00
2019-05-01T10:07:36.831Z,936.00
2019-05-01T10:08:39.884Z,940.00
2019-05-01T10:09:36.784Z,956.00
2019-05-01T10:10:37.129Z,964.00
2019-05-01T10:11:40.679Z,976.00
2019-05-01T10:12:36.736Z,988.00
2019-05-01T10:13:36.707Z,980.00
2019-05-01T10:14:37.494Z,964.00
2019-05-01T10:15:36.660Z,952.00
2019-05-01T10:16:36.647Z,936.00
2019-05-01T10:17:36.620Z,924.00
2019-05-01T10:18:36.606Z,904.00
2019-05-01T10:19:36.574Z,884.00
2019-05-01T10:20:36.553Z,880.00
2019-05-01T10:21:36.546Z,888.00
2019-05-01T10:22:37.466Z,904.00
2019-05-01T10:23:36.496Z,912.00
2019-05-01T10:24:37.621Z,920.00
2019-05-01T10:25:36.456Z,916.00
2019-05-01T10:26:36.426Z,908.00
2019-05-01T10:27:37.471Z,904.00
2019-05-01T10:28:36.390Z,912.00
2019-05-01T10:29:36.366Z,944.00
2019-05-01T10:30:37.572Z,996.00
2019-05-01T10:31:36.325Z,1024.00
2019-05-01T10:32:36.306Z,1004.00
2019-05-01T10:33:36.285Z,1000.00
2019-05-01T10:34:38.651Z,1012.00
2019-05-01T10:35:42.885Z,1024.00
2019-05-01T10:36:36.220Z,1048.00
2019-05-01T10:37:36.203Z,1064.00
2019-05-01T10:38:39.921Z,1056.00
2019-05-01T10:39:36.157Z,1024.00
2019-05-01T10:40:36.143Z,1000.00
2019-05-01T10:41:36.118Z,1024.00
2019-05-01T10:42:36.094Z,1104.00
2019-05-01T10:43:36.075Z,1176.00
2019-05-01T10:44:36.059Z,1228.00
2019-05-01T10:45:36.035Z,1248.00
2019-05-01T10:46:36.024Z,1176.00
2019-05-01T10:47:35.993Z,1148.00
2019-05-01T10:48:35.974Z,1144.00
2019-05-01T10:49:35.951Z,1140.00
2019-05-01T10:50:35.929Z,1188.00
2019-05-01T10:51:35.909Z,1232.00
2019-05-01T10:52:35.894Z,1368.00
2019-05-01T10:53:35.866Z,1316.00
2019-05-01T10:54:35.848Z,1328.00
2019-05-01T10:55:35.834Z,1296.00
2019-05-01T10:56:35.812Z,1584.00
2019-05-01T10:57:40.453Z,2480.00
2019-05-01T10:58:35.764Z,2536.00
2019-05-01T10:59:35.754Z,2496.00
2019-05-01T11:00:35.723Z,2440.00
2019-05-01T11:01:35.701Z,2448.00
2019-05-01T11:02:35.684Z,2428.00
2019-05-01T11:03:35.662Z,2416.00
2019-05-01T11:04:35.645Z,2224.00
2019-05-01T11:05:35.632Z,1576.00
2019-05-01T11:06:35.604Z,2440.00
2019-05-01T11:07:35.581Z,2476.00
2019-05-01T11:08:35.560Z,1820.00
2019-05-01T11:09:35.543Z,2404.00
2019-05-01T11:10:35.522Z,1976.00
2019-05-01T11:11:35.511Z,1300.00
2019-05-01T11:12:35.480Z,1372.00
2019-05-01T11:13:35.457Z,1264.00
2019-05-01T11:14:35.445Z,1208.00
2019-05-01T11:15:35.434Z,1348.00
2019-05-01T11:16:35.402Z,1404.00
2019-05-01T11:17:35.387Z,1580.00
2019-05-01T11:18:35.358Z,1588.00
2019-05-01T11:19:35.342Z,2412.00
2019-05-01T11:20:35.326Z,2544.00
2019-05-01T11:21:35.301Z,2516.00
2019-05-01T11:22:35.278Z,2472.00
2019-05-01T11:23:35.264Z,1492.00
2019-05-01T11:24:35.245Z,2508.00
2019-05-01T11:25:35.245Z,2444.00
2019-05-01T11:26:35.211Z,1868.00
2019-05-01T11:27:35.182Z,2216.00
2019-05-01T11:28:35.161Z,2408.00
2019-05-01T11:29:35.143Z,2148.00
2019-05-01T11:30:35.125Z,2316.00
2019-05-01T11:31:35.105Z,2344.00
2019-05-01T11:32:35.088Z,2404.00
2019-05-01T11:33:35.061Z,2328.00
2019-05-01T11:34:35.044Z,2340.00
2019-05-01T11:35:35.028Z,2380.00
2019-05-01T11:36:35.020Z,1644.00
2019-05-01T11:37:34.983Z,2076.00
2019-05-01T11:38:34.970Z,2456.00
2019-05-01T11:39:35.891Z,2504.00
2019-05-01T11:40:34.929Z,2476.00
2019-05-01T11:41:34.904Z,2588.00
2019-05-01T11:42:34.890Z,2552.00
2019-05-01T11:43:34.866Z,2376.00
2019-05-01T11:44:34.849Z,1268.00
2019-05-01T11:45:34.827Z,2388.00
2019-05-01T11:46:34.806Z,1692.00
2019-05-01T11:47:34.801Z,1828.00
2019-05-01T11:48:34.776Z,1960.00
2019-05-01T11:49:34.748Z,2044.00
2019-05-01T11:50:34.734Z,2496.00
2019-05-01T11:51:34.718Z,2476.00
2019-05-01T11:52:34.694Z,2496.00
2019-05-01T11:53:34.675Z,2368.00
2019-05-01T11:54:34.677Z,2340.00
2019-05-01T11:55:34.978Z,1912.00
2019-05-01T11:56:34.616Z,1364.00
2019-05-01T11:57:34.604Z,1172.00
2019-05-01T11:58:34.581Z,1088.00
2019-05-01T11:59:34.569Z,1048.00
2019-05-01T12:00:34.543Z,1388.00
2019-05-01T12:01:34.855Z,2400.00
2019-05-01T12:02:34.501Z,2492.00
2019-05-01T12:03:34.489Z,1524.00
2019-05-01T12:04:34.463Z,2176.00
2019-05-01T12:05:34.435Z,2376.00
2019-05-01T12:06:34.418Z,2432.00
2019-05-01T12:07:34.398Z,2384.00
2019-05-01T12:08:34.386Z,2512.00
2019-05-01T12:09:34.366Z,1960.00
2019-05-01T12:10:34.350Z,2040.00
2019-05-01T12:11:34.331Z,1976.00
2019-05-01T12:12:34.302Z,2472.00
2019-05-01T12:13:43.630Z,2496.00
2019-05-01T12:14:34.269Z,2444.00
2019-05-01T12:15:34.251Z,2472.00
2019-05-01T12:16:34.225Z,1056.00
2019-05-01T12:17:34.219Z,948.00
2019-05-01T12:18:34.185Z,1884.00
2019-05-01T12:19:34.170Z,1924.00
2019-05-01T12:20:34.158Z,1304.00
2019-05-01T12:21:34.127Z,1548.00
2019-05-01T12:22:34.322Z,2472.00
2019-05-01T12:23:34.097Z,2616.00
2019-05-01T12:24:34.071Z,2600.00
2019-05-01T12:25:34.050Z,1996.00
2019-05-01T12:26:34.052Z,2120.00
2019-05-01T12:27:34.009Z,1972.00
2019-05-01T12:28:34.005Z,2376.00
2019-05-01T12:29:33.978Z,2300.00
2019-05-01T12:30:33.956Z,1060.00
2019-05-01T12:31:33.938Z,948.00
2019-05-01T12:32:33.933Z,892.00
2019-05-01T12:33:33.898Z,1004.00
2019-05-01T12:34:33.873Z,2344.00
2019-05-01T12:35:33.905Z,2492.00
2019-05-01T12:36:36.356Z,2396.00
2019-05-01T12:37:33.847Z,1996.00
2019-05-01T12:38:33.797Z,1104.00
2019-05-01T12:39:33.779Z,896.00
2019-05-01T12:40:33.765Z,852.00
2019-05-01T12:41:33.741Z,884.00
2019-05-01T12:42:33.729Z,1028.00
2019-05-01T12:43:33.701Z,2000.00
2019-05-01T12:44:33.690Z,2424.00
2019-05-01T12:45:33.662Z,1652.00
2019-05-01T12:46:33.642Z,2236.00
2019-05-01T12:47:33.632Z,1596.00
2019-05-01T12:48:33.624Z,1052.00
2019-05-01T12:49:33.586Z,1092.00
2019-05-01T12:50:33.582Z,1464.00
2019-05-01T12:51:33.546Z,2476.00
2019-05-01T12:52:33.536Z,1332.00
2019-05-01T12:53:33.513Z,2512.00
2019-05-01T12:54:33.489Z,2328.00
2019-05-01T12:55:33.470Z,1388.00
2019-05-01T12:56:33.451Z,2052.00
2019-05-01T12:57:33.485Z,1168.00
2019-05-01T12:58:33.430Z,1196.00
2019-05-01T12:59:33.401Z,1240.00
2019-05-01T13:00:33.375Z,2064.00
2019-05-01T13:01:33.357Z,2228.00
2019-05-01T13:02:33.331Z,2360.00
2019-05-01T13:03:33.322Z,2592.00
2019-05-01T13:04:33.313Z,2496.00
2019-05-01T13:05:33.272Z,2420.00
2019-05-01T13:06:33.257Z,2276.00
2019-05-01T13:07:33.237Z,2240.00
2019-05-01T13:08:33.220Z,2332.00
2019-05-01T13:09:33.204Z,2308.00
2019-05-01T13:10:33.178Z,2276.00
2019-05-01T13:11:33.161Z,2240.00
2019-05-01T13:12:33.152Z,2240.00
2019-05-01T13:13:33.121Z,2260.00
2019-05-01T13:14:33.102Z,2272.00
2019-05-01T13:15:33.089Z,2260.00
2019-05-01T13:16:33.072Z,2296.00
2019-05-01T13:17:33.044Z,2292.00
2019-05-01T13:18:33.045Z,2240.00
2019-05-01T13:19:33.010Z,2236.00
2019-05-01T13:20:32.996Z,2216.00
2019-05-01T13:21:32.968Z,928.00
2019-05-01T13:22:32.954Z,960.00
2019-05-01T13:23:32.930Z,1792.00
2019-05-01T13:24:32.913Z,2036.00
2019-05-01T13:25:32.892Z,2184.00
2019-05-01T13:26:32.881Z,992.00
2019-05-01T13:27:32.854Z,996.00
2019-05-01T13:28:32.841Z,1632.00
2019-05-01T13:29:32.823Z,2376.00
2019-05-01T13:30:32.802Z,2412.00
2019-05-01T13:31:32.786Z,2324.00
2019-05-01T13:32:32.779Z,2324.00
2019-05-01T13:33:32.742Z,2332.00
2019-05-01T13:34:32.720Z,2244.00